Terminal Aerodrome Forecast
Issued by NWS Melbourne, FL

Home | Current Version | Previous Version | Text Only | Print | Product List | Glossary On
Versions: 1 2 3 4 5 6 7 8 9 10 11 12 13 14 15
000
FTUS42 KMLB 281132
TAFMLB
TAF
KMLB 281132Z 2812/2912 VRB03KT P6SM FEW090 OVC150
     FM281400 10006KT P6SM VCSH SCT025 OVC140
     FM281600 11008KT 6SM -RA BR BKN025 OVC060
      TEMPO 2816/2820 3SM SHRA BR BKN015 OVC030
     FM290000 13006KT 6SM -RA BR OVC020
      TEMPO 2900/2904 3SM SHRA BR OVC012
     FM290600 18004KT P6SM VCSH BKN025=

USA.gov is the U.S. government's official web portal to all federal, state and local government web resources and services.